sensor_id;sensor_type;location;lat;lon;timestamp;temperature;humidity
72320;SHT30;60269;52.502;16.732;2023-09-18T00:03:02;15.78;92.06
72320;SHT30;60269;52.502;16.732;2023-09-18T00:06:35;15.75;91.99
72320;SHT30;60269;52.502;16.732;2023-09-18T00:10:07;15.69;91.98
72320;SHT30;60269;52.502;16.732;2023-09-18T00:13:39;15.69;92.17
72320;SHT30;60269;52.502;16.732;2023-09-18T00:17:12;15.65;92.12
72320;SHT30;60269;52.502;16.732;2023-09-18T00:20:45;15.51;92.44
72320;SHT30;60269;52.502;16.732;2023-09-18T00:24:17;15.50;92.49
72320;SHT30;60269;52.502;16.732;2023-09-18T00:27:49;15.46;92.64
72320;SHT30;60269;52.502;16.732;2023-09-18T00:31:23;15.43;92.66
72320;SHT30;60269;52.502;16.732;2023-09-18T00:34:55;15.37;92.89
72320;SHT30;60269;52.502;16.732;2023-09-18T00:38:28;15.37;92.88
72320;SHT30;60269;52.502;16.732;2023-09-18T00:42:00;15.37;93.29
72320;SHT30;60269;52.502;16.732;2023-09-18T00:45:32;15.48;93.25
72320;SHT30;60269;52.502;16.732;2023-09-18T00:49:04;15.44;92.93
72320;SHT30;60269;52.502;16.732;2023-09-18T00:52:37;15.28;93.51
72320;SHT30;60269;52.502;16.732;2023-09-18T00:56:10;15.13;94.02
72320;SHT30;60269;52.502;16.732;2023-09-18T00:59:42;15.03;94.61
72320;SHT30;60269;52.502;16.732;2023-09-18T01:03:14;14.98;94.84
72320;SHT30;60269;52.502;16.732;2023-09-18T01:06:49;14.88;95.09
72320;SHT30;60269;52.502;16.732;2023-09-18T01:10:24;14.92;95.38
72320;SHT30;60269;52.502;16.732;2023-09-18T01:14:29;14.95;95.05
72320;SHT30;60269;52.502;16.732;2023-09-18T01:18:03;14.82;95.61
72320;SHT30;60269;52.502;16.732;2023-09-18T01:21:35;14.65;95.91
72320;SHT30;60269;52.502;16.732;2023-09-18T01:25:07;14.52;96.46
72320;SHT30;60269;52.502;16.732;2023-09-18T01:28:40;14.54;96.57
72320;SHT30;60269;52.502;16.732;2023-09-18T01:32:12;14.58;96.46
72320;SHT30;60269;52.502;16.732;2023-09-18T01:35:45;14.76;95.98
72320;SHT30;60269;52.502;16.732;2023-09-18T01:39:18;14.79;95.73
72320;SHT30;60269;52.502;16.732;2023-09-18T01:42:52;14.85;95.53
72320;SHT30;60269;52.502;16.732;2023-09-18T01:46:24;14.85;95.21
72320;SHT30;60269;52.502;16.732;2023-09-18T01:49:57;14.90;95.26
72320;SHT30;60269;52.502;16.732;2023-09-18T01:53:30;14.88;95.35
72320;SHT30;60269;52.502;16.732;2023-09-18T01:57:04;14.85;95.18
72320;SHT30;60269;52.502;16.732;2023-09-18T02:00:36;14.80;95.27
72320;SHT30;60269;52.502;16.732;2023-09-18T02:04:09;14.83;95.35
72320;SHT30;60269;52.502;16.732;2023-09-18T02:08:01;14.86;95.40
72320;SHT30;60269;52.502;16.732;2023-09-18T02:11:40;14.89;95.53
72320;SHT30;60269;52.502;16.732;2023-09-18T02:15:12;14.92;95.58
72320;SHT30;60269;52.502;16.732;2023-09-18T02:18:44;14.76;95.47
72320;SHT30;60269;52.502;16.732;2023-09-18T02:22:24;14.61;95.90
72320;SHT30;60269;52.502;16.732;2023-09-18T02:26:01;14.46;96.67
72320;SHT30;60269;52.502;16.732;2023-09-18T02:29:35;14.55;96.94
72320;SHT30;60269;52.502;16.732;2023-09-18T02:33:11;14.67;96.81
72320;SHT30;60269;52.502;16.732;2023-09-18T02:36:43;14.72;96.79
72320;SHT30;60269;52.502;16.732;2023-09-18T02:40:15;14.71;96.38
72320;SHT30;60269;52.502;16.732;2023-09-18T02:43:47;14.65;96.44
72320;SHT30;60269;52.502;16.732;2023-09-18T02:47:21;14.80;96.40
72320;SHT30;60269;52.502;16.732;2023-09-18T02:50:53;14.89;96.26
72320;SHT30;60269;52.502;16.732;2023-09-18T02:54:25;14.93;95.88
72320;SHT30;60269;52.502;16.732;2023-09-18T02:57:58;14.93;95.90
72320;SHT30;60269;52.502;16.732;2023-09-18T03:01:30;14.92;95.91
72320;SHT30;60269;52.502;16.732;2023-09-18T03:05:03;14.96;95.80
72320;SHT30;60269;52.502;16.732;2023-09-18T03:08:36;15.02;95.68
72320;SHT30;60269;52.502;16.732;2023-09-18T03:12:08;14.95;96.09
72320;SHT30;60269;52.502;16.732;2023-09-18T03:15:44;14.90;96.06
72320;SHT30;60269;52.502;16.732;2023-09-18T03:19:16;14.85;96.43
72320;SHT30;60269;52.502;16.732;2023-09-18T03:23:00;14.78;96.47
72320;SHT30;60269;52.502;16.732;2023-09-18T03:26:32;14.75;96.76
72320;SHT30;60269;52.502;16.732;2023-09-18T03:30:08;14.72;97.00
72320;SHT30;60269;52.502;16.732;2023-09-18T03:33:40;14.57;97.40
72320;SHT30;60269;52.502;16.732;2023-09-18T03:37:12;14.42;97.91
72320;SHT30;60269;52.502;16.732;2023-09-18T03:40:44;14.41;98.13
72320;SHT30;60269;52.502;16.732;2023-09-18T03:44:16;14.40;98.55
72320;SHT30;60269;52.502;16.732;2023-09-18T03:47:48;14.34;98.56
72320;SHT30;60269;52.502;16.732;2023-09-18T03:51:22;14.34;98.65
72320;SHT30;60269;52.502;16.732;2023-09-18T03:54:54;14.32;98.84
72320;SHT30;60269;52.502;16.732;2023-09-18T03:58:26;14.35;98.95
72320;SHT30;60269;52.502;16.732;2023-09-18T04:01:58;14.38;98.96
72320;SHT30;60269;52.502;16.732;2023-09-18T04:05:30;14.45;98.84
72320;SHT30;60269;52.502;16.732;2023-09-18T04:09:03;14.52;98.65
72320;SHT30;60269;52.502;16.732;2023-09-18T04:12:35;14.52;98.76
72320;SHT30;60269;52.502;16.732;2023-09-18T04:16:07;14.58;98.90
72320;SHT30;60269;52.502;16.732;2023-09-18T04:19:39;14.64;98.74
72320;SHT30;60269;52.502;16.732;2023-09-18T04:23:20;14.65;98.56
72320;SHT30;60269;52.502;16.732;2023-09-18T04:26:54;14.75;98.39
72320;SHT30;60269;52.502;16.732;2023-09-18T04:30:26;14.79;98.30
72320;SHT30;60269;52.502;16.732;2023-09-18T04:33:58;14.79;98.19
72320;SHT30;60269;52.502;16.732;2023-09-18T04:37:30;14.83;98.17
72320;SHT30;60269;52.502;16.732;2023-09-18T04:41:03;14.90;98.02
72320;SHT30;60269;52.502;16.732;2023-09-18T04:44:35;14.92;97.98
72320;SHT30;60269;52.502;16.732;2023-09-18T04:48:08;14.95;97.86
72320;SHT30;60269;52.502;16.732;2023-09-18T04:51:40;14.99;97.69
72320;SHT30;60269;52.502;16.732;2023-09-18T04:55:13;15.07;97.50
72320;SHT30;60269;52.502;16.732;2023-09-18T04:58:46;15.20;97.15
72320;SHT30;60269;52.502;16.732;2023-09-18T05:02:18;15.33;96.71
72320;SHT30;60269;52.502;16.732;2023-09-18T05:05:50;15.43;96.45
72320;SHT30;60269;52.502;16.732;2023-09-18T05:09:22;15.53;96.14
72320;SHT30;60269;52.502;16.732;2023-09-18T05:12:54;15.58;95.91
72320;SHT30;60269;52.502;16.732;2023-09-18T05:16:31;15.69;95.48
72320;SHT30;60269;52.502;16.732;2023-09-18T05:20:07;15.84;95.23
72320;SHT30;60269;52.502;16.732;2023-09-18T05:23:39;15.94;94.92
72320;SHT30;60269;52.502;16.732;2023-09-18T05:27:11;16.01;94.96
72320;SHT30;60269;52.502;16.732;2023-09-18T05:30:44;16.17;94.38
72320;SHT30;60269;52.502;16.732;2023-09-18T05:34:16;16.36;93.51
72320;SHT30;60269;52.502;16.732;2023-09-18T05:37:49;16.43;93.59
72320;SHT30;60269;52.502;16.732;2023-09-18T05:41:21;16.53;93.25
72320;SHT30;60269;52.502;16.732;2023-09-18T05:44:57;16.61;92.78
72320;SHT30;60269;52.502;16.732;2023-09-18T05:48:30;16.77;92.40
72320;SHT30;60269;52.502;16.732;2023-09-18T05:52:03;16.85;91.94
72320;SHT30;60269;52.502;16.732;2023-09-18T05:55:35;16.94;91.34
72320;SHT30;60269;52.502;16.732;2023-09-18T05:59:07;17.08;90.88
72320;SHT30;60269;52.502;16.732;2023-09-18T06:02:40;17.19;90.87
72320;SHT30;60269;52.502;16.732;2023-09-18T06:06:13;17.42;89.75
72320;SHT30;60269;52.502;16.732;2023-09-18T06:09:46;17.57;89.13
72320;SHT30;60269;52.502;16.732;2023-09-18T06:13:18;17.90;87.72
72320;SHT30;60269;52.502;16.732;2023-09-18T06:16:50;18.37;86.20
72320;SHT30;60269;52.502;16.732;2023-09-18T06:20:22;18.82;84.00
72320;SHT30;60269;52.502;16.732;2023-09-18T06:23:54;19.32;83.06
72320;SHT30;60269;52.502;16.732;2023-09-18T06:27:26;19.75;81.16
72320;SHT30;60269;52.502;16.732;2023-09-18T06:30:58;20.24;79.83
72320;SHT30;60269;52.502;16.732;2023-09-18T06:34:30;20.70;78.58
72320;SHT30;60269;52.502;16.732;2023-09-18T06:38:02;20.99;77.23
72320;SHT30;60269;52.502;16.732;2023-09-18T06:41:37;21.16;75.90
72320;SHT30;60269;52.502;16.732;2023-09-18T06:45:09;21.32;76.18
72320;SHT30;60269;52.502;16.732;2023-09-18T06:48:41;21.66;74.49
72320;SHT30;60269;52.502;16.732;2023-09-18T06:52:17;21.84;73.78
72320;SHT30;60269;52.502;16.732;2023-09-18T06:55:49;22.06;73.19
72320;SHT30;60269;52.502;16.732;2023-09-18T06:59:21;22.08;72.39
72320;SHT30;60269;52.502;16.732;2023-09-18T07:02:54;22.00;72.14
72320;SHT30;60269;52.502;16.732;2023-09-18T07:06:26;22.00;71.84
72320;SHT30;60269;52.502;16.732;2023-09-18T07:09:58;22.21;71.64
72320;SHT30;60269;52.502;16.732;2023-09-18T07:13:36;22.35;70.99
72320;SHT30;60269;52.502;16.732;2023-09-18T07:17:08;22.57;70.12
72320;SHT30;60269;52.502;16.732;2023-09-18T07:20:41;23.03;69.40
72320;SHT30;60269;52.502;16.732;2023-09-18T07:24:15;23.20;68.00
72320;SHT30;60269;52.502;16.732;2023-09-18T07:27:51;23.38;67.77
72320;SHT30;60269;52.502;16.732;2023-09-18T07:31:23;23.69;67.22
72320;SHT30;60269;52.502;16.732;2023-09-18T07:34:55;23.70;67.28
72320;SHT30;60269;52.502;16.732;2023-09-18T07:38:27;24.02;65.61
72320;SHT30;60269;52.502;16.732;2023-09-18T07:41:59;24.23;65.53
72320;SHT30;60269;52.502;16.732;2023-09-18T07:45:33;24.48;63.54
72320;SHT30;60269;52.502;16.732;2023-09-18T07:49:05;24.67;63.57
72320;SHT30;60269;52.502;16.732;2023-09-18T07:52:37;24.95;62.82
72320;SHT30;60269;52.502;16.732;2023-09-18T07:56:10;24.96;63.47
72320;SHT30;60269;52.502;16.732;2023-09-18T07:59:42;25.22;62.41
72320;SHT30;60269;52.502;16.732;2023-09-18T08:03:14;25.15;61.81
72320;SHT30;60269;52.502;16.732;2023-09-18T08:06:47;25.47;61.18
72320;SHT30;60269;52.502;16.732;2023-09-18T08:10:18;25.43;60.44
72320;SHT30;60269;52.502;16.732;2023-09-18T08:13:51;25.19;61.16
72320;SHT30;60269;52.502;16.732;2023-09-18T08:17:23;25.32;61.74
72320;SHT30;60269;52.502;16.732;2023-09-18T08:20:55;25.53;60.84
72320;SHT30;60269;52.502;16.732;2023-09-18T08:24:29;25.66;59.74
72320;SHT30;60269;52.502;16.732;2023-09-18T08:28:02;25.59;61.11
72320;SHT30;60269;52.502;16.732;2023-09-18T08:31:35;25.78;60.14
72320;SHT30;60269;52.502;16.732;2023-09-18T08:35:08;26.04;60.37
72320;SHT30;60269;52.502;16.732;2023-09-18T08:38:40;26.12;58.54
72320;SHT30;60269;52.502;16.732;2023-09-18T08:42:14;26.49;59.22
72320;SHT30;60269;52.502;16.732;2023-09-18T08:45:55;26.48;58.59
72320;SHT30;60269;52.502;16.732;2023-09-18T08:49:29;26.18;59.66
72320;SHT30;60269;52.502;16.732;2023-09-18T08:53:01;26.24;58.79
72320;SHT30;60269;52.502;16.732;2023-09-18T08:56:37;26.18;60.14
72320;SHT30;60269;52.502;16.732;2023-09-18T09:00:10;26.53;58.87
72320;SHT30;60269;52.502;16.732;2023-09-18T09:03:48;26.64;58.50
72320;SHT30;60269;52.502;16.732;2023-09-18T09:07:20;26.61;58.07
72320;SHT30;60269;52.502;16.732;2023-09-18T09:10:52;26.52;58.56
72320;SHT30;60269;52.502;16.732;2023-09-18T09:14:24;26.55;58.21
72320;SHT30;60269;52.502;16.732;2023-09-18T09:18:07;26.26;58.87
72320;SHT30;60269;52.502;16.732;2023-09-18T09:21:42;26.21;60.03
72320;SHT30;60269;52.502;16.732;2023-09-18T09:25:23;26.42;59.49
72320;SHT30;60269;52.502;16.732;2023-09-18T09:29:14;26.31;60.89
72320;SHT30;60269;52.502;16.732;2023-09-18T09:32:48;26.35;58.82
72320;SHT30;60269;52.502;16.732;2023-09-18T09:36:22;26.59;59.24
72320;SHT30;60269;52.502;16.732;2023-09-18T09:39:54;26.75;58.03
72320;SHT30;60269;52.502;16.732;2023-09-18T09:43:28;26.70;58.18
72320;SHT30;60269;52.502;16.732;2023-09-18T09:47:01;26.75;57.56
72320;SHT30;60269;52.502;16.732;2023-09-18T09:50:33;26.59;57.06
72320;SHT30;60269;52.502;16.732;2023-09-18T09:54:06;26.63;56.91
72320;SHT30;60269;52.502;16.732;2023-09-18T09:57:47;26.87;58.10
72320;SHT30;60269;52.502;16.732;2023-09-18T10:01:23;26.61;56.17
72320;SHT30;60269;52.502;16.732;2023-09-18T10:04:55;26.70;56.67
72320;SHT30;60269;52.502;16.732;2023-09-18T10:08:28;26.91;56.00
72320;SHT30;60269;52.502;16.732;2023-09-18T10:12:03;26.75;55.54
72320;SHT30;60269;52.502;16.732;2023-09-18T10:15:44;26.73;56.34
72320;SHT30;60269;52.502;16.732;2023-09-18T10:23:53;26.88;55.26
72320;SHT30;60269;52.502;16.732;2023-09-18T10:27:27;27.18;52.78
72320;SHT30;60269;52.502;16.732;2023-09-18T10:31:00;27.23;53.19
72320;SHT30;60269;52.502;16.732;2023-09-18T10:34:33;27.49;52.97
72320;SHT30;60269;52.502;16.732;2023-09-18T10:38:06;27.82;51.85
72320;SHT30;60269;52.502;16.732;2023-09-18T10:41:39;27.99;52.61
72320;SHT30;60269;52.502;16.732;2023-09-18T10:45:12;28.65;51.25
72320;SHT30;60269;52.502;16.732;2023-09-18T10:48:45;28.95;49.53
72320;SHT30;60269;52.502;16.732;2023-09-18T10:52:21;29.22;49.72
72320;SHT30;60269;52.502;16.732;2023-09-18T10:55:53;28.64;49.37
72320;SHT30;60269;52.502;16.732;2023-09-18T10:59:27;29.00;49.14
72320;SHT30;60269;52.502;16.732;2023-09-18T11:03:29;28.82;49.50
72320;SHT30;60269;52.502;16.732;2023-09-18T11:07:02;28.34;49.96
72320;SHT30;60269;52.502;16.732;2023-09-18T11:10:34;28.45;49.32
72320;SHT30;60269;52.502;16.732;2023-09-18T11:14:10;28.88;49.34
72320;SHT30;60269;52.502;16.732;2023-09-18T11:17:43;28.94;49.13
72320;SHT30;60269;52.502;16.732;2023-09-18T11:21:15;29.39;48.02
72320;SHT30;60269;52.502;16.732;2023-09-18T11:24:50;29.54;46.79
72320;SHT30;60269;52.502;16.732;2023-09-18T11:28:24;29.29;47.85
72320;SHT30;60269;52.502;16.732;2023-09-18T11:31:56;29.46;47.59
72320;SHT30;60269;52.502;16.732;2023-09-18T11:35:38;29.31;46.85
72320;SHT30;60269;52.502;16.732;2023-09-18T11:39:10;29.51;47.43
72320;SHT30;60269;52.502;16.732;2023-09-18T11:47:07;30.53;45.62
72320;SHT30;60269;52.502;16.732;2023-09-18T11:50:41;29.71;46.42
72320;SHT30;60269;52.502;16.732;2023-09-18T11:54:14;29.50;46.58
72320;SHT30;60269;52.502;16.732;2023-09-18T11:57:49;29.61;46.51
72320;SHT30;60269;52.502;16.732;2023-09-18T12:01:21;30.74;44.98
72320;SHT30;60269;52.502;16.732;2023-09-18T12:04:56;30.57;44.14
72320;SHT30;60269;52.502;16.732;2023-09-18T12:08:29;31.27;42.75
72320;SHT30;60269;52.502;16.732;2023-09-18T12:12:05;30.82;43.87
72320;SHT30;60269;52.502;16.732;2023-09-18T12:15:39;30.98;41.94
72320;SHT30;60269;52.502;16.732;2023-09-18T12:19:18;30.91;43.64
72320;SHT30;60269;52.502;16.732;2023-09-18T12:22:51;31.34;42.66
72320;SHT30;60269;52.502;16.732;2023-09-18T12:26:23;30.91;42.18
72320;SHT30;60269;52.502;16.732;2023-09-18T12:29:59;30.74;43.00
72320;SHT30;60269;52.502;16.732;2023-09-18T12:33:35;30.51;43.60
72320;SHT30;60269;52.502;16.732;2023-09-18T12:37:08;30.57;43.44
72320;SHT30;60269;52.502;16.732;2023-09-18T12:40:44;30.91;42.06
72320;SHT30;60269;52.502;16.732;2023-09-18T12:44:18;31.35;41.76
72320;SHT30;60269;52.502;16.732;2023-09-18T12:47:51;30.55;42.26
72320;SHT30;60269;52.502;16.732;2023-09-18T12:51:33;30.06;42.82
72320;SHT30;60269;52.502;16.732;2023-09-18T12:55:05;29.98;43.42
72320;SHT30;60269;52.502;16.732;2023-09-18T12:58:41;29.67;43.44
72320;SHT30;60269;52.502;16.732;2023-09-18T13:02:34;29.76;43.41
72320;SHT30;60269;52.502;16.732;2023-09-18T13:06:07;30.12;42.94
72320;SHT30;60269;52.502;16.732;2023-09-18T13:09:40;30.06;41.80
72320;SHT30;60269;52.502;16.732;2023-09-18T13:13:20;30.45;42.77
72320;SHT30;60269;52.502;16.732;2023-09-18T13:17:00;30.57;41.88
72320;SHT30;60269;52.502;16.732;2023-09-18T13:20:32;30.31;42.32
72320;SHT30;60269;52.502;16.732;2023-09-18T13:24:07;29.81;43.61
72320;SHT30;60269;52.502;16.732;2023-09-18T13:27:39;29.33;43.79
72320;SHT30;60269;52.502;16.732;2023-09-18T13:31:11;28.96;44.95
72320;SHT30;60269;52.502;16.732;2023-09-18T13:34:44;29.09;45.79
72320;SHT30;60269;52.502;16.732;2023-09-18T13:38:17;29.09;45.83
72320;SHT30;60269;52.502;16.732;2023-09-18T13:41:50;29.57;45.06
72320;SHT30;60269;52.502;16.732;2023-09-18T13:45:22;30.25;43.94
72320;SHT30;60269;52.502;16.732;2023-09-18T13:48:55;30.73;42.59
72320;SHT30;60269;52.502;16.732;2023-09-18T13:52:27;31.35;42.07
72320;SHT30;60269;52.502;16.732;2023-09-18T13:56:01;30.70;43.02
72320;SHT30;60269;52.502;16.732;2023-09-18T13:59:34;30.24;43.61
72320;SHT30;60269;52.502;16.732;2023-09-18T14:03:06;29.46;44.90
72320;SHT30;60269;52.502;16.732;2023-09-18T14:06:38;29.16;45.50
72320;SHT30;60269;52.502;16.732;2023-09-18T14:10:11;29.22;44.96
72320;SHT30;60269;52.502;16.732;2023-09-18T14:13:43;29.60;45.06
72320;SHT30;60269;52.502;16.732;2023-09-18T14:17:16;29.87;44.34
72320;SHT30;60269;52.502;16.732;2023-09-18T14:20:49;30.35;43.32
72320;SHT30;60269;52.502;16.732;2023-09-18T14:24:21;30.76;43.54
72320;SHT30;60269;52.502;16.732;2023-09-18T14:27:57;31.00;43.45
72320;SHT30;60269;52.502;16.732;2023-09-18T14:31:29;31.38;42.11
72320;SHT30;60269;52.502;16.732;2023-09-18T14:35:03;30.94;42.63
72320;SHT30;60269;52.502;16.732;2023-09-18T14:38:37;30.86;42.21
72320;SHT30;60269;52.502;16.732;2023-09-18T14:42:09;30.57;43.16
72320;SHT30;60269;52.502;16.732;2023-09-18T14:45:42;30.39;44.49
72320;SHT30;60269;52.502;16.732;2023-09-18T14:49:14;30.05;45.19
72320;SHT30;60269;52.502;16.732;2023-09-18T14:52:46;29.77;44.83
72320;SHT30;60269;52.502;16.732;2023-09-18T14:56:18;29.80;46.54
72320;SHT30;60269;52.502;16.732;2023-09-18T14:59:50;29.22;46.40
72320;SHT30;60269;52.502;16.732;2023-09-18T15:03:23;28.85;46.73
72320;SHT30;60269;52.502;16.732;2023-09-18T15:06:59;28.41;48.49
72320;SHT30;60269;52.502;16.732;2023-09-18T15:10:31;27.86;49.46
72320;SHT30;60269;52.502;16.732;2023-09-18T15:14:04;27.31;50.43
72320;SHT30;60269;52.502;16.732;2023-09-18T15:17:35;26.94;51.90
72320;SHT30;60269;52.502;16.732;2023-09-18T15:21:10;26.76;52.05
72320;SHT30;60269;52.502;16.732;2023-09-18T15:24:42;26.63;52.61
72320;SHT30;60269;52.502;16.732;2023-09-18T15:28:14;26.52;53.15
72320;SHT30;60269;52.502;16.732;2023-09-18T15:31:46;26.36;53.86
72320;SHT30;60269;52.502;16.732;2023-09-18T15:35:23;26.31;53.96
72320;SHT30;60269;52.502;16.732;2023-09-18T15:38:56;26.29;54.18
72320;SHT30;60269;52.502;16.732;2023-09-18T15:42:29;26.25;54.42
72320;SHT30;60269;52.502;16.732;2023-09-18T15:46:00;26.29;54.87
72320;SHT30;60269;52.502;16.732;2023-09-18T15:49:33;26.21;54.88
72320;SHT30;60269;52.502;16.732;2023-09-18T15:53:05;26.17;55.20
72320;SHT30;60269;52.502;16.732;2023-09-18T15:56:37;26.02;55.73
72320;SHT30;60269;52.502;16.732;2023-09-18T16:00:11;25.88;56.38
72320;SHT30;60269;52.502;16.732;2023-09-18T16:03:44;25.75;56.65
72320;SHT30;60269;52.502;16.732;2023-09-18T16:07:19;25.61;57.16
72320;SHT30;60269;52.502;16.732;2023-09-18T16:10:51;25.51;57.75
72320;SHT30;60269;52.502;16.732;2023-09-18T16:14:23;25.34;58.55
72320;SHT30;60269;52.502;16.732;2023-09-18T16:17:55;25.23;58.79
72320;SHT30;60269;52.502;16.732;2023-09-18T16:21:28;25.18;58.80
72320;SHT30;60269;52.502;16.732;2023-09-18T16:25:00;25.08;59.38
72320;SHT30;60269;52.502;16.732;2023-09-18T16:28:32;24.98;59.75
72320;SHT30;60269;52.502;16.732;2023-09-18T16:32:05;24.79;60.40
72320;SHT30;60269;52.502;16.732;2023-09-18T16:35:38;24.64;61.22
72320;SHT30;60269;52.502;16.732;2023-09-18T16:39:11;24.54;61.38
72320;SHT30;60269;52.502;16.732;2023-09-18T16:42:46;24.46;61.83
72320;SHT30;60269;52.502;16.732;2023-09-18T16:46:18;24.24;62.46
72320;SHT30;60269;52.502;16.732;2023-09-18T16:49:50;24.12;62.81
72320;SHT30;60269;52.502;16.732;2023-09-18T16:53:22;23.96;63.48
72320;SHT30;60269;52.502;16.732;2023-09-18T16:56:55;23.72;64.59
72320;SHT30;60269;52.502;16.732;2023-09-18T17:00:27;23.58;65.17
72320;SHT30;60269;52.502;16.732;2023-09-18T17:04:00;23.48;65.35
72320;SHT30;60269;52.502;16.732;2023-09-18T17:07:32;23.47;65.50
72320;SHT30;60269;52.502;16.732;2023-09-18T17:11:04;23.52;65.60
72320;SHT30;60269;52.502;16.732;2023-09-18T17:14:36;23.57;65.38
72320;SHT30;60269;52.502;16.732;2023-09-18T17:18:08;23.58;65.39
72320;SHT30;60269;52.502;16.732;2023-09-18T17:21:42;23.63;65.33
72320;SHT30;60269;52.502;16.732;2023-09-18T17:25:14;23.55;65.60
72320;SHT30;60269;52.502;16.732;2023-09-18T17:28:49;23.47;66.02
72320;SHT30;60269;52.502;16.732;2023-09-18T17:32:21;23.41;66.15
72320;SHT30;60269;52.502;16.732;2023-09-18T17:35:53;23.55;65.79
72320;SHT30;60269;52.502;16.732;2023-09-18T17:39:25;23.55;66.22
72320;SHT30;60269;52.502;16.732;2023-09-18T17:42:57;23.57;65.93
72320;SHT30;60269;52.502;16.732;2023-09-18T17:46:29;23.55;66.02
72320;SHT30;60269;52.502;16.732;2023-09-18T17:50:02;23.51;66.35
72320;SHT30;60269;52.502;16.732;2023-09-18T17:53:35;23.35;67.00
72320;SHT30;60269;52.502;16.732;2023-09-18T17:57:08;23.34;67.25
72320;SHT30;60269;52.502;16.732;2023-09-18T18:00:40;23.34;67.28
72320;SHT30;60269;52.502;16.732;2023-09-18T18:04:13;23.28;67.80
72320;SHT30;60269;52.502;16.732;2023-09-18T18:07:46;23.30;67.44
72320;SHT30;60269;52.502;16.732;2023-09-18T18:11:22;23.35;67.60
72320;SHT30;60269;52.502;16.732;2023-09-18T18:14:54;23.32;67.63
72320;SHT30;60269;52.502;16.732;2023-09-18T18:18:26;23.37;67.45
72320;SHT30;60269;52.502;16.732;2023-09-18T18:21:58;23.42;67.21
72320;SHT30;60269;52.502;16.732;2023-09-18T18:25:31;23.37;67.62
72320;SHT30;60269;52.502;16.732;2023-09-18T18:29:03;23.28;67.73
72320;SHT30;60269;52.502;16.732;2023-09-18T18:32:36;23.14;68.42
72320;SHT30;60269;52.502;16.732;2023-09-18T18:36:08;23.08;68.80
72320;SHT30;60269;52.502;16.732;2023-09-18T18:39:41;23.07;68.85
72320;SHT30;60269;52.502;16.732;2023-09-18T18:43:13;23.03;69.03
72320;SHT30;60269;52.502;16.732;2023-09-18T18:46:49;22.93;69.38
72320;SHT30;60269;52.502;16.732;2023-09-18T18:50:32;22.87;69.70
72320;SHT30;60269;52.502;16.732;2023-09-18T18:54:07;22.74;70.24
72320;SHT30;60269;52.502;16.732;2023-09-18T18:57:39;22.72;70.65
72320;SHT30;60269;52.502;16.732;2023-09-18T19:01:16;22.64;70.70
72320;SHT30;60269;52.502;16.732;2023-09-18T19:04:52;22.53;71.65
72320;SHT30;60269;52.502;16.732;2023-09-18T19:08:26;22.41;72.54
72320;SHT30;60269;52.502;16.732;2023-09-18T19:11:59;22.21;72.77
72320;SHT30;60269;52.502;16.732;2023-09-18T19:15:31;22.09;73.07
72320;SHT30;60269;52.502;16.732;2023-09-18T19:19:03;22.02;73.33
72320;SHT30;60269;52.502;16.732;2023-09-18T19:22:37;21.93;73.65
72320;SHT30;60269;52.502;16.732;2023-09-18T19:26:09;21.88;73.88
72320;SHT30;60269;52.502;16.732;2023-09-18T19:29:46;21.85;74.04
72320;SHT30;60269;52.502;16.732;2023-09-18T19:33:20;21.81;74.35
72320;SHT30;60269;52.502;16.732;2023-09-18T19:36:56;21.68;74.69
72320;SHT30;60269;52.502;16.732;2023-09-18T19:40:42;21.73;74.56
72320;SHT30;60269;52.502;16.732;2023-09-18T19:44:14;21.70;74.66
72320;SHT30;60269;52.502;16.732;2023-09-18T19:47:47;21.73;74.71
72320;SHT30;60269;52.502;16.732;2023-09-18T19:51:20;21.68;74.84
72320;SHT30;60269;52.502;16.732;2023-09-18T19:54:55;21.66;75.14
72320;SHT30;60269;52.502;16.732;2023-09-18T19:58:30;21.73;74.71
72320;SHT30;60269;52.502;16.732;2023-09-18T20:02:08;21.78;74.40
72320;SHT30;60269;52.502;16.732;2023-09-18T20:05:45;21.83;74.10
72320;SHT30;60269;52.502;16.732;2023-09-18T20:09:21;21.83;74.12
72320;SHT30;60269;52.502;16.732;2023-09-18T20:13:12;21.81;73.91
72320;SHT30;60269;52.502;16.732;2023-09-18T20:16:47;21.78;73.86
72320;SHT30;60269;52.502;16.732;2023-09-18T20:20:27;21.73;74.01
72320;SHT30;60269;52.502;16.732;2023-09-18T20:24:17;21.68;74.34
72320;SHT30;60269;52.502;16.732;2023-09-18T20:27:53;21.66;74.39
72320;SHT30;60269;52.502;16.732;2023-09-18T20:31:42;21.57;74.47
72320;SHT30;60269;52.502;16.732;2023-09-18T20:35:19;21.50;74.55
72320;SHT30;60269;52.502;16.732;2023-09-18T20:38:55;21.58;74.31
72320;SHT30;60269;52.502;16.732;2023-09-18T20:42:28;21.58;74.05
72320;SHT30;60269;52.502;16.732;2023-09-18T20:46:03;21.61;73.81
72320;SHT30;60269;52.502;16.732;2023-09-18T20:49:36;21.64;73.64
72320;SHT30;60269;52.502;16.732;2023-09-18T20:53:11;21.63;74.28
72320;SHT30;60269;52.502;16.732;2023-09-18T20:56:50;21.60;74.37
72320;SHT30;60269;52.502;16.732;2023-09-18T21:00:22;21.61;74.27
72320;SHT30;60269;52.502;16.732;2023-09-18T21:04:00;21.53;74.66
72320;SHT30;60269;52.502;16.732;2023-09-18T21:07:36;21.51;75.02
72320;SHT30;60269;52.502;16.732;2023-09-18T21:11:23;21.51;75.30
72320;SHT30;60269;52.502;16.732;2023-09-18T21:15:16;21.49;75.83
72320;SHT30;60269;52.502;16.732;2023-09-18T21:18:48;21.28;77.06
72320;SHT30;60269;52.502;16.732;2023-09-18T21:22:21;21.16;77.53
72320;SHT30;60269;52.502;16.732;2023-09-18T21:25:53;21.05;78.33
72320;SHT30;60269;52.502;16.732;2023-09-18T21:29:25;20.95;78.83
72320;SHT30;60269;52.502;16.732;2023-09-18T21:32:58;20.85;79.45
72320;SHT30;60269;52.502;16.732;2023-09-18T21:36:31;20.87;79.98
72320;SHT30;60269;52.502;16.732;2023-09-18T21:40:06;20.79;80.24
72320;SHT30;60269;52.502;16.732;2023-09-18T21:43:39;20.91;79.76
72320;SHT30;60269;52.502;16.732;2023-09-18T21:47:11;20.91;79.92
72320;SHT30;60269;52.502;16.732;2023-09-18T21:50:45;20.91;79.95
72320;SHT30;60269;52.502;16.732;2023-09-18T21:54:17;20.71;81.58
72320;SHT30;60269;52.502;16.732;2023-09-18T21:57:49;20.36;82.44
72320;SHT30;60269;52.502;16.732;2023-09-18T22:01:21;20.43;81.06
72320;SHT30;60269;52.502;16.732;2023-09-18T22:04:58;20.43;81.08
72320;SHT30;60269;52.502;16.732;2023-09-18T22:08:36;20.41;80.97
72320;SHT30;60269;52.502;16.732;2023-09-18T22:12:16;20.27;82.15
72320;SHT30;60269;52.502;16.732;2023-09-18T22:15:48;20.13;81.77
72320;SHT30;60269;52.502;16.732;2023-09-18T22:19:22;19.89;83.01